sensor_id;sensor_type;location;lat;lon;timestamp;P1;durP1;ratioP1;P2;durP2;ratioP2
73585;SDS011;61865;50.232;18.614;2023-03-14T00:01:43;30.75;;;13.23;;
73585;SDS011;61865;50.232;18.614;2023-03-14T00:04:06;30.85;;;12.65;;
73585;SDS011;61865;50.232;18.614;2023-03-14T00:06:29;24.23;;;11.07;;
73585;SDS011;61865;50.232;18.614;2023-03-14T00:08:51;25.13;;;9.25;;
73585;SDS011;61865;50.232;18.614;2023-03-14T00:11:14;14.13;;;6.55;;
73585;SDS011;61865;50.232;18.614;2023-03-14T00:13:38;14.88;;;6.43;;
73585;SDS011;61865;50.232;18.614;2023-03-14T00:16:03;11.23;;;5.97;;
73585;SDS011;61865;50.232;18.614;2023-03-14T00:18:26;11.32;;;5.22;;
73585;SDS011;61865;50.232;18.614;2023-03-14T00:20:48;11.65;;;6.03;;
73585;SDS011;61865;50.232;18.614;2023-03-14T00:23:11;18.55;;;6.35;;
73585;SDS011;61865;50.232;18.614;2023-03-14T00:25:34;17.58;;;6.85;;
73585;SDS011;61865;50.232;18.614;2023-03-14T00:27:56;18.00;;;8.45;;
73585;SDS011;61865;50.232;18.614;2023-03-14T00:30:18;19.27;;;8.75;;
73585;SDS011;61865;50.232;18.614;2023-03-14T00:32:40;23.00;;;9.45;;
73585;SDS011;61865;50.232;18.614;2023-03-14T00:35:02;24.48;;;9.00;;
73585;SDS011;61865;50.232;18.614;2023-03-14T00:37:24;21.60;;;9.20;;
73585;SDS011;61865;50.232;18.614;2023-03-14T00:39:47;27.48;;;10.20;;
73585;SDS011;61865;50.232;18.614;2023-03-14T00:42:09;23.00;;;9.15;;
73585;SDS011;61865;50.232;18.614;2023-03-14T00:44:31;24.55;;;10.07;;
73585;SDS011;61865;50.232;18.614;2023-03-14T00:46:53;23.48;;;10.05;;
73585;SDS011;61865;50.232;18.614;2023-03-14T00:49:15;21.20;;;9.50;;
73585;SDS011;61865;50.232;18.614;2023-03-14T00:51:37;26.40;;;9.38;;
73585;SDS011;61865;50.232;18.614;2023-03-14T00:53:59;27.90;;;10.45;;
73585;SDS011;61865;50.232;18.614;2023-03-14T00:56:22;21.98;;;10.05;;
73585;SDS011;61865;50.232;18.614;2023-03-14T00:58:44;19.35;;;7.82;;
73585;SDS011;61865;50.232;18.614;2023-03-14T01:01:06;16.20;;;7.20;;
73585;SDS011;61865;50.232;18.614;2023-03-14T01:03:29;16.48;;;6.68;;
73585;SDS011;61865;50.232;18.614;2023-03-14T01:05:51;12.77;;;5.60;;
73585;SDS011;61865;50.232;18.614;2023-03-14T01:08:13;12.10;;;4.85;;
73585;SDS011;61865;50.232;18.614;2023-03-14T01:10:37;12.00;;;4.35;;
73585;SDS011;61865;50.232;18.614;2023-03-14T01:13:01;10.60;;;4.45;;
73585;SDS011;61865;50.232;18.614;2023-03-14T01:15:23;10.63;;;4.53;;
73585;SDS011;61865;50.232;18.614;2023-03-14T01:17:45;8.32;;;4.00;;
73585;SDS011;61865;50.232;18.614;2023-03-14T01:20:09;11.10;;;4.80;;
73585;SDS011;61865;50.232;18.614;2023-03-14T01:22:33;9.45;;;4.20;;
73585;SDS011;61865;50.232;18.614;2023-03-14T01:24:54;8.70;;;3.85;;
73585;SDS011;61865;50.232;18.614;2023-03-14T01:27:16;9.18;;;4.30;;
73585;SDS011;61865;50.232;18.614;2023-03-14T01:29:40;11.63;;;4.00;;
73585;SDS011;61865;50.232;18.614;2023-03-14T01:32:01;7.10;;;3.67;;
73585;SDS011;61865;50.232;18.614;2023-03-14T01:34:23;8.55;;;4.20;;
73585;SDS011;61865;50.232;18.614;2023-03-14T01:36:45;7.95;;;4.07;;
73585;SDS011;61865;50.232;18.614;2023-03-14T01:39:07;7.50;;;3.55;;
73585;SDS011;61865;50.232;18.614;2023-03-14T01:41:29;7.78;;;3.75;;
73585;SDS011;61865;50.232;18.614;2023-03-14T01:43:51;8.10;;;3.92;;
73585;SDS011;61865;50.232;18.614;2023-03-14T01:46:35;9.60;;;3.95;;
73585;SDS011;61865;50.232;18.614;2023-03-14T01:49:00;9.48;;;4.35;;
73585;SDS011;61865;50.232;18.614;2023-03-14T01:51:27;9.82;;;4.93;;
73585;SDS011;61865;50.232;18.614;2023-03-14T01:53:53;6.75;;;4.00;;
73585;SDS011;61865;50.232;18.614;2023-03-14T01:56:20;17.05;;;7.38;;
73585;SDS011;61865;50.232;18.614;2023-03-14T01:58:43;21.58;;;9.85;;
73585;SDS011;61865;50.232;18.614;2023-03-14T02:01:09;15.13;;;6.90;;
73585;SDS011;61865;50.232;18.614;2023-03-14T02:03:34;9.95;;;4.22;;
73585;SDS011;61865;50.232;18.614;2023-03-14T02:06:00;13.60;;;5.88;;
73585;SDS011;61865;50.232;18.614;2023-03-14T02:08:28;16.80;;;7.38;;
73585;SDS011;61865;50.232;18.614;2023-03-14T02:10:50;10.93;;;6.68;;
73585;SDS011;61865;50.232;18.614;2023-03-14T02:13:12;18.55;;;7.03;;
73585;SDS011;61865;50.232;18.614;2023-03-14T02:15:36;13.90;;;7.38;;
73585;SDS011;61865;50.232;18.614;2023-03-14T02:17:59;12.02;;;5.65;;
73585;SDS011;61865;50.232;18.614;2023-03-14T02:20:27;10.60;;;6.00;;
73585;SDS011;61865;50.232;18.614;2023-03-14T02:22:55;9.10;;;5.63;;
73585;SDS011;61865;50.232;18.614;2023-03-14T02:25:19;13.40;;;5.90;;
73585;SDS011;61865;50.232;18.614;2023-03-14T02:27:49;22.65;;;7.47;;
73585;SDS011;61865;50.232;18.614;2023-03-14T02:30:12;18.48;;;6.93;;
73585;SDS011;61865;50.232;18.614;2023-03-14T02:32:38;12.48;;;6.53;;
73585;SDS011;61865;50.232;18.614;2023-03-14T02:35:05;16.02;;;7.10;;
73585;SDS011;61865;50.232;18.614;2023-03-14T02:37:32;13.18;;;6.63;;
73585;SDS011;61865;50.232;18.614;2023-03-14T02:39:56;11.00;;;5.85;;
73585;SDS011;61865;50.232;18.614;2023-03-14T02:42:18;9.30;;;5.57;;
73585;SDS011;61865;50.232;18.614;2023-03-14T02:44:49;14.18;;;7.00;;
73585;SDS011;61865;50.232;18.614;2023-03-14T02:47:13;12.10;;;6.60;;
73585;SDS011;61865;50.232;18.614;2023-03-14T02:49:35;18.38;;;10.07;;
73585;SDS011;61865;50.232;18.614;2023-03-14T02:51:57;22.27;;;9.48;;
73585;SDS011;61865;50.232;18.614;2023-03-14T02:54:19;14.68;;;7.05;;
73585;SDS011;61865;50.232;18.614;2023-03-14T02:56:42;15.55;;;7.45;;
73585;SDS011;61865;50.232;18.614;2023-03-14T02:59:03;15.80;;;7.15;;
73585;SDS011;61865;50.232;18.614;2023-03-14T03:01:27;16.02;;;6.68;;
73585;SDS011;61865;50.232;18.614;2023-03-14T03:03:49;11.52;;;6.60;;
73585;SDS011;61865;50.232;18.614;2023-03-14T03:06:11;18.45;;;8.30;;
73585;SDS011;61865;50.232;18.614;2023-03-14T03:08:33;21.80;;;8.88;;
73585;SDS011;61865;50.232;18.614;2023-03-14T03:10:56;28.67;;;11.18;;
73585;SDS011;61865;50.232;18.614;2023-03-14T03:13:18;17.70;;;8.70;;
73585;SDS011;61865;50.232;18.614;2023-03-14T03:15:41;18.38;;;9.25;;
73585;SDS011;61865;50.232;18.614;2023-03-14T03:18:04;18.55;;;10.07;;
73585;SDS011;61865;50.232;18.614;2023-03-14T03:20:26;23.73;;;12.23;;
73585;SDS011;61865;50.232;18.614;2023-03-14T03:22:48;15.32;;;7.30;;
73585;SDS011;61865;50.232;18.614;2023-03-14T03:25:10;16.63;;;7.72;;
73585;SDS011;61865;50.232;18.614;2023-03-14T03:27:32;14.68;;;7.78;;
73585;SDS011;61865;50.232;18.614;2023-03-14T03:29:55;13.20;;;7.10;;
73585;SDS011;61865;50.232;18.614;2023-03-14T03:32:16;12.48;;;7.63;;
73585;SDS011;61865;50.232;18.614;2023-03-14T03:34:40;14.18;;;7.70;;
73585;SDS011;61865;50.232;18.614;2023-03-14T03:37:02;14.27;;;7.55;;
73585;SDS011;61865;50.232;18.614;2023-03-14T03:39:23;15.93;;;7.00;;
73585;SDS011;61865;50.232;18.614;2023-03-14T03:41:45;17.67;;;7.28;;
73585;SDS011;61865;50.232;18.614;2023-03-14T03:44:07;13.30;;;6.60;;
73585;SDS011;61865;50.232;18.614;2023-03-14T03:46:29;15.60;;;7.65;;
73585;SDS011;61865;50.232;18.614;2023-03-14T03:48:53;16.23;;;7.75;;
73585;SDS011;61865;50.232;18.614;2023-03-14T03:51:17;15.75;;;6.80;;
73585;SDS011;61865;50.232;18.614;2023-03-14T03:53:39;17.23;;;7.80;;
73585;SDS011;61865;50.232;18.614;2023-03-14T03:56:01;22.58;;;8.10;;
73585;SDS011;61865;50.232;18.614;2023-03-14T03:58:23;14.82;;;8.05;;
73585;SDS011;61865;50.232;18.614;2023-03-14T04:00:45;14.00;;;7.95;;
73585;SDS011;61865;50.232;18.614;2023-03-14T04:03:07;20.73;;;9.68;;
73585;SDS011;61865;50.232;18.614;2023-03-14T04:05:29;89.07;;;28.20;;
73585;SDS011;61865;50.232;18.614;2023-03-14T04:07:52;16.25;;;9.77;;
73585;SDS011;61865;50.232;18.614;2023-03-14T04:23:25;45.72;;;17.98;;
73585;SDS011;61865;50.232;18.614;2023-03-14T04:25:47;31.40;;;12.95;;
73585;SDS011;61865;50.232;18.614;2023-03-14T04:28:09;35.78;;;12.63;;
73585;SDS011;61865;50.232;18.614;2023-03-14T04:30:30;28.15;;;12.65;;
73585;SDS011;61865;50.232;18.614;2023-03-14T04:32:52;26.98;;;11.45;;
73585;SDS011;61865;50.232;18.614;2023-03-14T04:35:14;27.83;;;11.05;;
73585;SDS011;61865;50.232;18.614;2023-03-14T04:37:36;20.35;;;9.38;;
73585;SDS011;61865;50.232;18.614;2023-03-14T04:39:59;23.60;;;10.32;;
73585;SDS011;61865;50.232;18.614;2023-03-14T04:42:21;25.85;;;10.38;;
73585;SDS011;61865;50.232;18.614;2023-03-14T04:44:43;29.20;;;11.70;;
73585;SDS011;61865;50.232;18.614;2023-03-14T04:47:06;25.95;;;11.98;;
73585;SDS011;61865;50.232;18.614;2023-03-14T04:49:28;19.40;;;10.68;;
73585;SDS011;61865;50.232;18.614;2023-03-14T04:51:50;36.97;;;14.13;;
73585;SDS011;61865;50.232;18.614;2023-03-14T04:54:12;31.33;;;13.70;;
73585;SDS011;61865;50.232;18.614;2023-03-14T04:56:35;26.85;;;13.13;;
73585;SDS011;61865;50.232;18.614;2023-03-14T04:58:58;26.17;;;12.23;;
73585;SDS011;61865;50.232;18.614;2023-03-14T05:01:19;27.73;;;12.55;;
73585;SDS011;61865;50.232;18.614;2023-03-14T05:03:41;29.58;;;15.55;;
73585;SDS011;61865;50.232;18.614;2023-03-14T05:06:03;36.90;;;16.45;;
73585;SDS011;61865;50.232;18.614;2023-03-14T05:08:26;28.45;;;14.68;;
73585;SDS011;61865;50.232;18.614;2023-03-14T05:10:51;30.35;;;15.07;;
73585;SDS011;61865;50.232;18.614;2023-03-14T05:13:15;25.23;;;14.30;;
73585;SDS011;61865;50.232;18.614;2023-03-14T05:15:36;31.45;;;15.43;;
73585;SDS011;61865;50.232;18.614;2023-03-14T05:17:58;28.38;;;14.98;;
73585;SDS011;61865;50.232;18.614;2023-03-14T05:20:34;37.97;;;18.95;;
73585;SDS011;61865;50.232;18.614;2023-03-14T05:22:56;46.28;;;19.58;;
73585;SDS011;61865;50.232;18.614;2023-03-14T05:25:18;65.90;;;27.00;;
73585;SDS011;61865;50.232;18.614;2023-03-14T05:27:40;39.70;;;19.95;;
73585;SDS011;61865;50.232;18.614;2023-03-14T05:30:03;37.40;;;19.08;;
73585;SDS011;61865;50.232;18.614;2023-03-14T05:32:26;38.67;;;17.75;;
73585;SDS011;61865;50.232;18.614;2023-03-14T05:34:48;32.53;;;16.83;;
73585;SDS011;61865;50.232;18.614;2023-03-14T05:37:10;32.83;;;17.00;;
73585;SDS011;61865;50.232;18.614;2023-03-14T05:39:32;36.78;;;17.05;;
73585;SDS011;61865;50.232;18.614;2023-03-14T05:41:54;35.15;;;16.73;;
73585;SDS011;61865;50.232;18.614;2023-03-14T05:44:16;43.08;;;18.42;;
73585;SDS011;61865;50.232;18.614;2023-03-14T05:46:39;45.30;;;22.30;;
73585;SDS011;61865;50.232;18.614;2023-03-14T05:49:16;47.08;;;25.73;;
73585;SDS011;61865;50.232;18.614;2023-03-14T05:51:52;46.88;;;23.23;;
73585;SDS011;61865;50.232;18.614;2023-03-14T05:54:14;36.97;;;19.23;;
73585;SDS011;61865;50.232;18.614;2023-03-14T05:56:36;37.75;;;19.27;;
73585;SDS011;61865;50.232;18.614;2023-03-14T05:58:58;42.05;;;20.65;;
73585;SDS011;61865;50.232;18.614;2023-03-14T06:01:22;45.53;;;19.58;;
73585;SDS011;61865;50.232;18.614;2023-03-14T06:03:45;41.42;;;20.27;;
73585;SDS011;61865;50.232;18.614;2023-03-14T06:06:07;46.85;;;22.40;;
73585;SDS011;61865;50.232;18.614;2023-03-14T06:08:29;48.15;;;23.13;;
73585;SDS011;61865;50.232;18.614;2023-03-14T06:10:51;45.22;;;22.75;;
73585;SDS011;61865;50.232;18.614;2023-03-14T06:13:13;65.28;;;27.05;;
73585;SDS011;61865;50.232;18.614;2023-03-14T06:15:35;81.35;;;31.23;;
73585;SDS011;61865;50.232;18.614;2023-03-14T06:18:12;119.25;;;40.78;;
73585;SDS011;61865;50.232;18.614;2023-03-14T06:20:36;102.93;;;38.13;;
73585;SDS011;61865;50.232;18.614;2023-03-14T06:22:59;84.63;;;29.45;;
73585;SDS011;61865;50.232;18.614;2023-03-14T06:25:36;121.97;;;34.40;;
73585;SDS011;61865;50.232;18.614;2023-03-14T06:27:58;125.80;;;31.98;;
73585;SDS011;61865;50.232;18.614;2023-03-14T06:30:20;131.63;;;36.10;;
73585;SDS011;61865;50.232;18.614;2023-03-14T06:32:42;148.75;;;42.15;;
73585;SDS011;61865;50.232;18.614;2023-03-14T06:35:04;96.10;;;27.75;;
73585;SDS011;61865;50.232;18.614;2023-03-14T06:37:28;47.38;;;17.40;;
73585;SDS011;61865;50.232;18.614;2023-03-14T06:39:50;27.92;;;13.20;;
73585;SDS011;61865;50.232;18.614;2023-03-14T06:42:12;28.20;;;13.05;;
73585;SDS011;61865;50.232;18.614;2023-03-14T06:44:34;26.77;;;12.80;;
73585;SDS011;61865;50.232;18.614;2023-03-14T06:46:55;26.55;;;13.05;;
73585;SDS011;61865;50.232;18.614;2023-03-14T06:49:17;26.27;;;11.73;;
73585;SDS011;61865;50.232;18.614;2023-03-14T06:51:39;26.02;;;11.90;;
73585;SDS011;61865;50.232;18.614;2023-03-14T06:54:02;21.92;;;10.27;;
73585;SDS011;61865;50.232;18.614;2023-03-14T06:56:24;27.15;;;11.48;;
73585;SDS011;61865;50.232;18.614;2023-03-14T06:58:46;28.35;;;12.20;;
73585;SDS011;61865;50.232;18.614;2023-03-14T07:01:12;28.55;;;11.90;;
73585;SDS011;61865;50.232;18.614;2023-03-14T07:03:41;31.83;;;13.25;;
73585;SDS011;61865;50.232;18.614;2023-03-14T07:06:03;31.17;;;12.43;;
73585;SDS011;61865;50.232;18.614;2023-03-14T07:08:25;29.38;;;11.85;;
73585;SDS011;61865;50.232;18.614;2023-03-14T07:10:49;23.17;;;9.20;;
73585;SDS011;61865;50.232;18.614;2023-03-14T07:13:11;23.77;;;9.57;;
73585;SDS011;61865;50.232;18.614;2023-03-14T07:15:33;22.50;;;9.20;;
73585;SDS011;61865;50.232;18.614;2023-03-14T07:17:55;18.83;;;7.38;;
73585;SDS011;61865;50.232;18.614;2023-03-14T07:20:17;18.05;;;7.22;;
73585;SDS011;61865;50.232;18.614;2023-03-14T07:22:39;26.73;;;10.93;;
73585;SDS011;61865;50.232;18.614;2023-03-14T07:25:01;24.10;;;10.10;;
73585;SDS011;61865;50.232;18.614;2023-03-14T07:27:24;30.73;;;11.82;;
73585;SDS011;61865;50.232;18.614;2023-03-14T07:29:46;61.42;;;24.23;;
73585;SDS011;61865;50.232;18.614;2023-03-14T07:32:08;78.22;;;30.50;;
73585;SDS011;61865;50.232;18.614;2023-03-14T07:34:34;57.72;;;25.88;;
73585;SDS011;61865;50.232;18.614;2023-03-14T07:36:56;44.50;;;19.65;;
73585;SDS011;61865;50.232;18.614;2023-03-14T07:39:18;16.65;;;8.45;;
73585;SDS011;61865;50.232;18.614;2023-03-14T07:41:40;33.45;;;14.82;;
73585;SDS011;61865;50.232;18.614;2023-03-14T07:44:03;21.92;;;11.27;;
73585;SDS011;61865;50.232;18.614;2023-03-14T07:46:25;25.25;;;9.57;;
73585;SDS011;61865;50.232;18.614;2023-03-14T07:48:47;21.50;;;9.68;;
73585;SDS011;61865;50.232;18.614;2023-03-14T07:51:09;20.15;;;9.27;;
73585;SDS011;61865;50.232;18.614;2023-03-14T07:53:31;15.05;;;7.75;;
73585;SDS011;61865;50.232;18.614;2023-03-14T07:55:53;16.83;;;8.02;;
73585;SDS011;61865;50.232;18.614;2023-03-14T07:58:15;14.77;;;6.70;;
73585;SDS011;61865;50.232;18.614;2023-03-14T08:00:39;18.80;;;7.35;;
73585;SDS011;61865;50.232;18.614;2023-03-14T08:03:00;14.57;;;7.10;;
73585;SDS011;61865;50.232;18.614;2023-03-14T08:05:22;11.48;;;5.97;;
73585;SDS011;61865;50.232;18.614;2023-03-14T08:07:44;14.23;;;6.43;;
73585;SDS011;61865;50.232;18.614;2023-03-14T08:10:06;12.55;;;5.50;;
73585;SDS011;61865;50.232;18.614;2023-03-14T08:12:30;10.90;;;5.18;;
73585;SDS011;61865;50.232;18.614;2023-03-14T08:14:53;9.50;;;5.25;;
73585;SDS011;61865;50.232;18.614;2023-03-14T08:17:16;13.73;;;4.90;;
73585;SDS011;61865;50.232;18.614;2023-03-14T08:19:38;14.63;;;5.57;;
73585;SDS011;61865;50.232;18.614;2023-03-14T08:21:59;12.23;;;5.88;;
73585;SDS011;61865;50.232;18.614;2023-03-14T08:24:23;11.30;;;4.63;;
73585;SDS011;61865;50.232;18.614;2023-03-14T08:26:44;14.70;;;4.68;;
73585;SDS011;61865;50.232;18.614;2023-03-14T08:29:06;10.80;;;3.95;;
73585;SDS011;61865;50.232;18.614;2023-03-14T08:31:28;9.93;;;4.13;;
73585;SDS011;61865;50.232;18.614;2023-03-14T08:33:51;8.18;;;4.13;;
73585;SDS011;61865;50.232;18.614;2023-03-14T08:36:15;12.20;;;5.30;;
73585;SDS011;61865;50.232;18.614;2023-03-14T08:38:36;12.15;;;4.47;;
73585;SDS011;61865;50.232;18.614;2023-03-14T08:40:59;17.02;;;4.03;;
73585;SDS011;61865;50.232;18.614;2023-03-14T08:43:22;11.25;;;4.90;;
73585;SDS011;61865;50.232;18.614;2023-03-14T08:45:44;15.23;;;4.65;;
73585;SDS011;61865;50.232;18.614;2023-03-14T08:48:06;7.40;;;3.97;;
73585;SDS011;61865;50.232;18.614;2023-03-14T08:50:29;11.45;;;3.75;;
73585;SDS011;61865;50.232;18.614;2023-03-14T08:52:51;10.60;;;3.97;;
73585;SDS011;61865;50.232;18.614;2023-03-14T08:55:13;8.43;;;4.10;;
73585;SDS011;61865;50.232;18.614;2023-03-14T08:57:35;12.02;;;4.50;;
73585;SDS011;61865;50.232;18.614;2023-03-14T08:59:57;8.60;;;4.10;;
73585;SDS011;61865;50.232;18.614;2023-03-14T09:02:18;16.73;;;4.75;;
73585;SDS011;61865;50.232;18.614;2023-03-14T09:04:40;9.45;;;4.43;;
73585;SDS011;61865;50.232;18.614;2023-03-14T09:07:04;9.93;;;4.38;;
73585;SDS011;61865;50.232;18.614;2023-03-14T09:09:26;10.65;;;4.07;;
73585;SDS011;61865;50.232;18.614;2023-03-14T09:11:48;8.07;;;4.22;;
73585;SDS011;61865;50.232;18.614;2023-03-14T09:14:09;12.15;;;4.63;;
73585;SDS011;61865;50.232;18.614;2023-03-14T09:16:32;9.68;;;4.30;;
73585;SDS011;61865;50.232;18.614;2023-03-14T09:18:55;10.55;;;3.65;;
73585;SDS011;61865;50.232;18.614;2023-03-14T09:21:19;8.60;;;3.85;;
73585;SDS011;61865;50.232;18.614;2023-03-14T09:23:42;16.20;;;4.80;;
73585;SDS011;61865;50.232;18.614;2023-03-14T09:26:06;7.30;;;3.97;;
73585;SDS011;61865;50.232;18.614;2023-03-14T09:28:28;10.45;;;4.57;;
73585;SDS011;61865;50.232;18.614;2023-03-14T09:30:50;5.90;;;3.30;;
73585;SDS011;61865;50.232;18.614;2023-03-14T09:33:12;8.65;;;3.83;;
73585;SDS011;61865;50.232;18.614;2023-03-14T09:35:34;11.88;;;4.28;;
73585;SDS011;61865;50.232;18.614;2023-03-14T09:37:56;8.70;;;3.75;;
73585;SDS011;61865;50.232;18.614;2023-03-14T09:40:19;8.27;;;4.15;;
73585;SDS011;61865;50.232;18.614;2023-03-14T09:42:43;10.85;;;3.97;;
73585;SDS011;61865;50.232;18.614;2023-03-14T09:45:06;8.52;;;3.72;;
73585;SDS011;61865;50.232;18.614;2023-03-14T09:47:32;5.90;;;3.42;;
73585;SDS011;61865;50.232;18.614;2023-03-14T09:49:55;7.50;;;3.28;;
73585;SDS011;61865;50.232;18.614;2023-03-14T09:52:17;8.07;;;4.15;;
73585;SDS011;61865;50.232;18.614;2023-03-14T09:54:43;8.50;;;4.03;;
73585;SDS011;61865;50.232;18.614;2023-03-14T09:57:11;5.95;;;3.17;;
73585;SDS011;61865;50.232;18.614;2023-03-14T09:59:35;11.13;;;4.03;;
73585;SDS011;61865;50.232;18.614;2023-03-14T10:01:58;8.68;;;3.70;;
73585;SDS011;61865;50.232;18.614;2023-03-14T10:04:22;5.35;;;3.20;;
73585;SDS011;61865;50.232;18.614;2023-03-14T10:06:44;8.60;;;3.88;;
73585;SDS011;61865;50.232;18.614;2023-03-14T10:09:08;6.47;;;3.88;;
73585;SDS011;61865;50.232;18.614;2023-03-14T10:11:32;10.00;;;3.80;;
73585;SDS011;61865;50.232;18.614;2023-03-14T10:14:08;7.85;;;3.67;;
73585;SDS011;61865;50.232;18.614;2023-03-14T10:16:33;9.00;;;3.50;;
73585;SDS011;61865;50.232;18.614;2023-03-14T10:19:00;5.78;;;3.03;;
73585;SDS011;61865;50.232;18.614;2023-03-14T10:21:26;6.88;;;3.55;;
73585;SDS011;61865;50.232;18.614;2023-03-14T10:23:50;10.32;;;4.32;;
73585;SDS011;61865;50.232;18.614;2023-03-14T10:26:12;6.47;;;3.90;;
73585;SDS011;61865;50.232;18.614;2023-03-14T10:28:38;7.13;;;4.03;;
73585;SDS011;61865;50.232;18.614;2023-03-14T10:31:04;10.50;;;4.05;;
73585;SDS011;61865;50.232;18.614;2023-03-14T10:33:27;9.75;;;3.88;;
73585;SDS011;61865;50.232;18.614;2023-03-14T10:35:54;9.75;;;4.18;;
73585;SDS011;61865;50.232;18.614;2023-03-14T10:38:18;9.48;;;3.72;;
73585;SDS011;61865;50.232;18.614;2023-03-14T10:40:40;7.35;;;3.60;;
73585;SDS011;61865;50.232;18.614;2023-03-14T10:43:13;8.40;;;4.10;;
73585;SDS011;61865;50.232;18.614;2023-03-14T10:45:38;10.25;;;3.97;;
73585;SDS011;61865;50.232;18.614;2023-03-14T10:48:15;7.18;;;3.83;;
73585;SDS011;61865;50.232;18.614;2023-03-14T10:50:42;5.90;;;3.35;;
73585;SDS011;61865;50.232;18.614;2023-03-14T10:53:09;8.05;;;3.90;;
73585;SDS011;61865;50.232;18.614;2023-03-14T10:55:39;12.82;;;5.18;;
73585;SDS011;61865;50.232;18.614;2023-03-14T10:58:02;8.85;;;4.38;;
73585;SDS011;61865;50.232;18.614;2023-03-14T11:00:24;9.20;;;4.82;;
73585;SDS011;61865;50.232;18.614;2023-03-14T11:02:53;9.10;;;4.85;;
73585;SDS011;61865;50.232;18.614;2023-03-14T11:05:29;10.93;;;4.78;;
73585;SDS011;61865;50.232;18.614;2023-03-14T11:07:56;9.15;;;4.28;;
73585;SDS011;61865;50.232;18.614;2023-03-14T11:10:24;10.80;;;4.80;;
73585;SDS011;61865;50.232;18.614;2023-03-14T11:12:55;8.32;;;4.45;;
73585;SDS011;61865;50.232;18.614;2023-03-14T11:15:27;7.50;;;4.22;;
73585;SDS011;61865;50.232;18.614;2023-03-14T11:17:59;13.07;;;4.22;;
73585;SDS011;61865;50.232;18.614;2023-03-14T11:20:41;9.75;;;4.18;;
73585;SDS011;61865;50.232;18.614;2023-03-14T11:23:09;7.13;;;3.97;;
73585;SDS011;61865;50.232;18.614;2023-03-14T11:25:37;6.65;;;3.83;;
73585;SDS011;61865;50.232;18.614;2023-03-14T11:28:07;8.05;;;3.92;;
73585;SDS011;61865;50.232;18.614;2023-03-14T11:30:35;8.15;;;3.85;;
73585;SDS011;61865;50.232;18.614;2023-03-14T11:33:05;11.32;;;3.67;;
73585;SDS011;61865;50.232;18.614;2023-03-14T11:35:36;7.72;;;3.90;;
73585;SDS011;61865;50.232;18.614;2023-03-14T11:38:07;13.90;;;4.10;;
73585;SDS011;61865;50.232;18.614;2023-03-14T11:40:34;12.00;;;3.88;;
73585;SDS011;61865;50.232;18.614;2023-03-14T11:42:59;8.60;;;4.10;;
73585;SDS011;61865;50.232;18.614;2023-03-14T11:45:25;8.35;;;4.10;;
73585;SDS011;61865;50.232;18.614;2023-03-14T11:47:51;9.48;;;3.83;;
73585;SDS011;61865;50.232;18.614;2023-03-14T11:50:28;8.60;;;3.92;;
73585;SDS011;61865;50.232;18.614;2023-03-14T11:52:52;7.68;;;4.20;;
73585;SDS011;61865;50.232;18.614;2023-03-14T11:55:32;6.10;;;3.45;;
73585;SDS011;61865;50.232;18.614;2023-03-14T11:57:58;9.90;;;4.13;;
73585;SDS011;61865;50.232;18.614;2023-03-14T12:00:24;10.60;;;4.13;;
73585;SDS011;61865;50.232;18.614;2023-03-14T12:02:48;12.93;;;4.28;;
73585;SDS011;61865;50.232;18.614;2023-03-14T12:05:31;7.10;;;4.03;;
73585;SDS011;61865;50.232;18.614;2023-03-14T12:08:14;6.75;;;4.10;;
73585;SDS011;61865;50.232;18.614;2023-03-14T12:10:55;7.13;;;3.67;;
73585;SDS011;61865;50.232;18.614;2023-03-14T12:13:21;5.43;;;3.63;;
73585;SDS011;61865;50.232;18.614;2023-03-14T12:15:46;10.77;;;3.90;;
73585;SDS011;61865;50.232;18.614;2023-03-14T12:18:16;12.57;;;4.47;;
73585;SDS011;61865;50.232;18.614;2023-03-14T12:20:41;10.30;;;4.28;;
73585;SDS011;61865;50.232;18.614;2023-03-14T12:23:14;11.27;;;4.03;;
73585;SDS011;61865;50.232;18.614;2023-03-14T12:25:36;11.23;;;4.80;;
73585;SDS011;61865;50.232;18.614;2023-03-14T12:30:39;11.48;;;4.90;;
73585;SDS011;61865;50.232;18.614;2023-03-14T12:33:12;11.52;;;4.78;;
73585;SDS011;61865;50.232;18.614;2023-03-14T12:35:48;10.05;;;4.85;;
73585;SDS011;61865;50.232;18.614;2023-03-14T12:38:12;8.45;;;4.70;;
73585;SDS011;61865;50.232;18.614;2023-03-14T12:40:37;10.38;;;5.22;;
73585;SDS011;61865;50.232;18.614;2023-03-14T12:43:02;8.68;;;4.97;;
73585;SDS011;61865;50.232;18.614;2023-03-14T12:45:28;9.52;;;4.63;;
73585;SDS011;61865;50.232;18.614;2023-03-14T12:47:55;12.52;;;5.03;;
73585;SDS011;61865;50.232;18.614;2023-03-14T12:50:26;12.55;;;4.65;;
73585;SDS011;61865;50.232;18.614;2023-03-14T12:52:57;10.05;;;4.70;;
73585;SDS011;61865;50.232;18.614;2023-03-14T12:55:45;8.90;;;4.25;;
73585;SDS011;61865;50.232;18.614;2023-03-14T12:58:12;6.25;;;4.18;;
73585;SDS011;61865;50.232;18.614;2023-03-14T13:00:40;10.20;;;4.80;;
73585;SDS011;61865;50.232;18.614;2023-03-14T13:03:11;9.02;;;4.75;;
73585;SDS011;61865;50.232;18.614;2023-03-14T13:05:46;8.57;;;4.47;;
73585;SDS011;61865;50.232;18.614;2023-03-14T13:08:14;8.73;;;4.55;;
73585;SDS011;61865;50.232;18.614;2023-03-14T13:10:54;8.85;;;4.18;;
73585;SDS011;61865;50.232;18.614;2023-03-14T13:13:19;8.45;;;4.55;;
73585;SDS011;61865;50.232;18.614;2023-03-14T13:15:44;12.13;;;4.40;;
73585;SDS011;61865;50.232;18.614;2023-03-14T13:18:09;8.70;;;4.57;;
73585;SDS011;61865;50.232;18.614;2023-03-14T13:20:34;8.85;;;5.13;;
73585;SDS011;61865;50.232;18.614;2023-03-14T13:22:58;11.23;;;5.25;;
73585;SDS011;61865;50.232;18.614;2023-03-14T13:25:20;10.73;;;6.00;;
73585;SDS011;61865;50.232;18.614;2023-03-14T13:27:43;11.88;;;5.88;;
73585;SDS011;61865;50.232;18.614;2023-03-14T13:30:05;16.02;;;6.75;;
73585;SDS011;61865;50.232;18.614;2023-03-14T13:32:40;11.63;;;5.40;;
73585;SDS011;61865;50.232;18.614;2023-03-14T13:35:13;9.63;;;5.80;;
73585;SDS011;61865;50.232;18.614;2023-03-14T13:37:38;12.65;;;5.65;;
73585;SDS011;61865;50.232;18.614;2023-03-14T13:40:01;12.70;;;6.43;;
73585;SDS011;61865;50.232;18.614;2023-03-14T13:42:24;12.02;;;6.75;;
73585;SDS011;61865;50.232;18.614;2023-03-14T13:44:48;10.60;;;6.07;;
73585;SDS011;61865;50.232;18.614;2023-03-14T13:47:13;12.43;;;6.47;;
73585;SDS011;61865;50.232;18.614;2023-03-14T13:49:38;16.98;;;6.10;;
73585;SDS011;61865;50.232;18.614;2023-03-14T13:52:00;13.88;;;6.65;;
73585;SDS011;61865;50.232;18.614;2023-03-14T13:54:23;16.40;;;6.72;;
73585;SDS011;61865;50.232;18.614;2023-03-14T13:56:48;13.75;;;6.80;;
73585;SDS011;61865;50.232;18.614;2023-03-14T13:59:23;13.20;;;7.10;;
73585;SDS011;61865;50.232;18.614;2023-03-14T14:01:45;12.55;;;6.78;;
73585;SDS011;61865;50.232;18.614;2023-03-14T14:04:09;12.13;;;6.40;;
73585;SDS011;61865;50.232;18.614;2023-03-14T14:06:38;14.50;;;6.30;;
73585;SDS011;61865;50.232;18.614;2023-03-14T14:09:09;12.43;;;6.10;;
73585;SDS011;61865;50.232;18.614;2023-03-14T14:11:37;10.73;;;6.25;;
73585;SDS011;61865;50.232;18.614;2023-03-14T14:14:03;13.63;;;5.43;;
73585;SDS011;61865;50.232;18.614;2023-03-14T14:16:27;10.38;;;5.55;;
73585;SDS011;61865;50.232;18.614;2023-03-14T14:18:51;13.48;;;6.72;;
73585;SDS011;61865;50.232;18.614;2023-03-14T14:21:14;11.60;;;5.68;;